Essig, MN

5:07 AM CST on December 09, 2019 (GMT -0600)
Home Township | | Change Station
Active Advisory: Winter Weather Advisory

Elev 1007 ft 44.35 °N, 94.71 °W | Updated 7 minutes ago

Overcast
Overcast
21.6 °F
Feels Like 11 °F
N
10
Wind Variable Wind from West
Gusts 17.0 mph

Today
High -- | Low -- °F
--% Chance of Precip.
Yesterday
High -- | Low -- °F
Precip. -- in
Pressure 29.62 in
Visibility 1.8 miles
Clouds Overcast 300 ft
Windchill 11 °F
Dew Point 12 °F
Humidity 66%
Rainfall 0.00 in
Snow Depth Not available.
7:42 AM 4:39 PM
Waxing Gibbous, 92% visible
METAR KULM 091055Z AUTO 29013KT 1 3/4SM BR OVC003 M05/M06 A2962 RMK AO2
Pressure 29.62 in
Visibility 1.8 miles
Clouds Overcast 300 ft
Windchill 11 °F
Dew Point 12 °F
Humidity 66%
Rainfall 0.00 in
Snow Depth Not available.
7:42 AM 4:39 PM
Waxing Gibbous, 92% visible
METAR KULM 091055Z AUTO 29013KT 1 3/4SM BR OVC003 M05/M06 A2962 RMK AO2

Get Your Daily Forecast Email!

Thanks for signing up!

Be on the lookout for a verification email in your inbox.

You'll start receiving severe weather alerts in your inbox..

×

10-Day Weather Forecast

Almanac

Astronomy

Dec. 09, 2019 Rise Set
Actual Time
Civil Twilight
Nautical Twilight
Astronomical Twilight
Moon
Length of Visible Light
Length of Day
Tomorrow will be .
, % of the Moon is Illuminated

Today's Extremes

State Highs State Lows

Community

WunderPhotos

Category 6

Welcome to Category 6. This is the collective home for Weather Underground's featured writeups by Dr. Jeff Masters (right), Bob Henson (left), Chris Burt, and other regular contributors.

Nearby

Air Quality

  Air Quality AQ Index Pollutant
Not available.

Snow Depth

Station Depth Elevation

Earthquake Activity

City Distance Mag. Time & Date
Minimum magnitude displayed is 2.5.

Coastal Water Temperatures

Place Temperature

Stations

Nearby Weather Stations

Station Location Temp. Windchill Dew Point Humidity Wind Precip. Elev Updated Type
                   

Watches & Warnings

Winter Weather Advisory
Issued: 2:44 AM CST Dec. 9, 2019 – National Weather Service

... Winter Weather Advisory in effect until 9 am CST this
morning...

* what... snow expected. Total snow accumulations up to two inches.
Winds gusting as high as 35 mph may cause patchy blowing snow.

* Where... portions of central, south central, southwest and west
central Minnesota.

* When... until 9 am CST this morning.

* Impacts... plan on slippery Road conditions. The hazardous
conditions will impact the Monday morning commute.


Precautionary/preparedness actions...

Slow down and use caution while traveling.

The latest Road conditions for the state you are calling from can
be obtained by calling 5 1 1.